Terminal Aerodrome Forecast
Issued by NWS Columbia, SC

Home | Current Version | Previous Version | Text Only | Print | Product List | Glossary On
Versions: 1 2 3 4 5 6 7 8 9 10 11 12 13 14 15 16 17 18 19 20 21 22 23 24 25 26 27 28 29 30 31 32 33 34 35 36 37 38 39
000
FTUS42 KCAE 040200 AAA
TAFCAE
TAF AMD
KCAE 040252Z 0403/0424 VRB03KT 1 1/2SM BR OVC003
      TEMPO 0404/0406 1/2SM FG
     FM040600 19004KT 1/4SM -DZ FG OVC001 WS020/21035KT
     FM041500 23010KT 5SM BR BKN012
     FM041700 23015G25KT P6SM SCT015 BKN045=

USA.gov is the U.S. government's official web portal to all federal, state and local government web resources and services.